Terminal Aerodrome Forecast
Issued by NWS

Home | Current Version | Previous Version | Text Only | Print | Product List | Glossary On
Versions: 1 2 3 4 5 6 7 8 9 10 11 12 13 14 15 16 17 18 19 20 21 22 23 24 25 26 27 28 29 30
000
FTUS44 KFWD 281124
TAFAFW
TAF
KAFW 281124Z 2812/0112 19015KT 6SM BR BKN012
     FM281400 17012KT 5SM BR OVC008
     FM281800 19015KT P6SM OVC015
     FM282100 20016KT P6SM SCT025 BKN040
     FM010100 18013KT P6SM OVC250
     FM010900 29010KT P6SM SCT250=

USA.gov is the U.S. government's official web portal to all federal, state and local government web resources and services.